Time;durP1;ratioP1;P1;durP2;ratioP2;P2;SDS_P1;SDS_P2;PMS_P1;PMS_P2;Temp;Humidity;BMP_temperature;BMP_pressure;BME280_temperature;BME280_humidity;BME280_pressure;Samples;Min_cycle;Max_cycle;Signal;HPM_P1;HPM_P2
2023/05/23 00:01:23;;;;;;;0.40;0.40;;;;;;;;;;5006524;28;20216;-88
2023/05/23 00:03:51;;;;;;;0.50;0.50;;;;;;;;;;5025486;28;20191;-87
2023/05/23 00:06:20;;;;;;;0.40;0.40;;;;;;;;;;5025412;28;20176;-87
2023/05/23 00:08:46;;;;;;;0.40;0.40;;;;;;;;;;5025342;28;20181;-87
2023/05/23 00:11:12;;;;;;;0.40;0.40;;;;;;;;;;5022059;28;20208;-87
2023/05/23 00:13:38;;;;;;;0.30;0.30;;;;;;;;;;5026584;28;20168;-87
2023/05/23 00:16:08;;;;;;;0.30;0.30;;;;;;;;;;5027103;28;20192;-86
2023/05/23 00:18:34;;;;;;;0.40;0.40;;;;;;;;;;5026066;28;20181;-87
2023/05/23 00:21:01;;;;;;;0.40;0.40;;;;;;;;;;5025288;28;20594;-87
2023/05/23 00:23:28;;;;;;;0.40;0.40;;;;;;;;;;5025904;28;20233;-87
2023/05/23 00:25:54;;;;;;;0.40;0.40;;;;;;;;;;5026729;28;20261;-87
2023/05/23 00:28:21;;;;;;;0.40;0.40;;;;;;;;;;5027015;28;20235;-87
2023/05/23 00:30:50;;;;;;;0.40;0.40;;;;;;;;;;5026552;28;20212;-87
2023/05/23 00:33:16;;;;;;;0.30;0.30;;;;;;;;;;5034275;28;20169;-87
2023/05/23 00:35:42;;;;;;;0.30;0.30;;;;;;;;;;5036435;28;20215;-86
2023/05/23 00:38:10;;;;;;;0.40;0.40;;;;;;;;;;5034289;28;20197;-86
2023/05/23 00:40:36;;;;;;;0.40;0.40;;;;;;;;;;5023380;28;20220;-86
2023/05/23 00:43:02;;;;;;;0.30;0.30;;;;;;;;;;5022503;28;20521;-86
2023/05/23 00:45:28;;;;;;;0.50;0.50;;;;;;;;;;5022592;28;20176;-86
2023/05/23 00:47:54;;;;;;;0.40;0.40;;;;;;;;;;5021795;28;20181;-86
2023/05/23 00:50:20;;;;;;;0.40;0.40;;;;;;;;;;5020514;28;20280;-86
2023/05/23 00:52:47;;;;;;;0.33;0.33;;;;;;;;;;5020600;28;20246;-87
2023/05/23 00:55:13;;;;;;;0.43;0.43;;;;;;;;;;5020815;28;20183;-87
2023/05/23 00:57:40;;;;;;;0.50;0.50;;;;;;;;;;5019592;28;20172;-87
2023/05/23 01:00:10;;;;;;;0.40;0.40;;;;;;;;;;5020960;28;20259;-87
2023/05/23 01:02:42;;;;;;;0.40;0.40;;;;;;;;;;5024151;28;20223;-86
2023/05/23 01:05:10;;;;;;;0.40;0.40;;;;;;;;;;5005964;28;20177;-87
2023/05/23 01:07:36;;;;;;;0.40;0.40;;;;;;;;;;5024525;28;20181;-86
2023/05/23 01:10:03;;;;;;;0.30;0.30;;;;;;;;;;5023139;28;20193;-87
2023/05/23 01:12:36;;;;;;;0.30;0.30;;;;;;;;;;5024169;28;20244;-87
2023/05/23 01:15:05;;;;;;;0.30;0.30;;;;;;;;;;5024753;28;20172;-86
2023/05/23 01:17:50;;;;;;;0.30;0.30;;;;;;;;;;5024936;28;20226;-87
2023/05/23 01:20:19;;;;;;;0.40;0.40;;;;;;;;;;5024846;28;20354;-86
2023/05/23 01:23:00;;;;;;;0.30;0.30;;;;;;;;;;5024800;28;20204;-87
2023/05/23 01:25:49;;;;;;;0.40;0.40;;;;;;;;;;5023672;28;20181;-87
2023/05/23 01:28:16;;;;;;;0.40;0.40;;;;;;;;;;5023809;28;20187;-87
2023/05/23 01:30:44;;;;;;;0.33;0.33;;;;;;;;;;5023989;28;20256;-86
2023/05/23 01:33:11;;;;;;;0.30;0.30;;;;;;;;;;5023928;28;20180;-87
2023/05/23 01:35:37;;;;;;;0.40;0.40;;;;;;;;;;5024432;28;20173;-86
2023/05/23 01:38:03;;;;;;;0.50;0.50;;;;;;;;;;5023671;28;20192;-86
2023/05/23 01:40:29;;;;;;;0.40;0.40;;;;;;;;;;5118508;22;20227;-84
2023/05/23 01:42:56;;;;;;;0.50;0.50;;;;;;;;;;5019906;28;20220;-84
2023/05/23 01:45:23;;;;;;;0.50;0.50;;;;;;;;;;5019522;28;20172;-83
2023/05/23 01:47:50;;;;;;;0.60;0.60;;;;;;;;;;5019583;28;20185;-82
2023/05/23 01:50:16;;;;;;;0.30;0.30;;;;;;;;;;5018539;28;20211;-83
2023/05/23 01:52:42;;;;;;;0.40;0.40;;;;;;;;;;5019347;28;20176;-83
2023/05/23 01:55:08;;;;;;;0.50;0.50;;;;;;;;;;5018880;28;20204;-81
2023/05/23 01:57:36;;;;;;;0.50;0.50;;;;;;;;;;5018634;28;20183;-82
2023/05/23 02:00:05;;;;;;;0.40;0.40;;;;;;;;;;5017554;28;20196;-80
2023/05/23 02:02:31;;;;;;;0.40;0.40;;;;;;;;;;5017438;28;20224;-80
2023/05/23 02:04:57;;;;;;;0.30;0.30;;;;;;;;;;5017663;28;20177;-81
2023/05/23 02:07:23;;;;;;;0.40;0.40;;;;;;;;;;5017919;28;20184;-81
2023/05/23 02:09:49;;;;;;;0.33;0.33;;;;;;;;;;5017266;28;20203;-82
2023/05/23 02:12:15;;;;;;;0.50;0.50;;;;;;;;;;5016993;28;20196;-81
2023/05/23 02:14:41;;;;;;;0.40;0.40;;;;;;;;;;5027890;28;20183;-80
2023/05/23 02:17:11;;;;;;;0.30;0.30;;;;;;;;;;5038132;28;20193;-80
2023/05/23 02:19:37;;;;;;;0.47;0.47;;;;;;;;;;5037797;28;20189;-79
2023/05/23 02:22:03;;;;;;;0.50;0.50;;;;;;;;;;5037316;28;20212;-82
2023/05/23 02:24:29;;;;;;;0.30;0.30;;;;;;;;;;5021521;28;20662;-82
2023/05/23 02:26:55;;;;;;;0.30;0.30;;;;;;;;;;5020522;28;20548;-82
2023/05/23 02:29:21;;;;;;;0.30;0.30;;;;;;;;;;5019904;28;20230;-82
2023/05/23 02:31:47;;;;;;;0.40;0.40;;;;;;;;;;5019988;28;20250;-81
2023/05/23 02:34:13;;;;;;;0.40;0.40;;;;;;;;;;5021499;28;20199;-81
2023/05/23 02:36:39;;;;;;;0.40;0.40;;;;;;;;;;5031748;28;20184;-81
2023/05/23 02:39:05;;;;;;;0.30;0.30;;;;;;;;;;5031208;28;20544;-80
2023/05/23 02:41:31;;;;;;;0.30;0.30;;;;;;;;;;5031091;28;20223;-80
2023/05/23 02:43:58;;;;;;;0.40;0.40;;;;;;;;;;5031538;28;20181;-81
2023/05/23 02:46:24;;;;;;;0.30;0.30;;;;;;;;;;5030936;28;20186;-80
2023/05/23 02:48:50;;;;;;;0.40;0.40;;;;;;;;;;5022958;28;20195;-82
2023/05/23 02:51:16;;;;;;;0.30;0.30;;;;;;;;;;5019662;28;20621;-82
2023/05/23 02:53:42;;;;;;;0.40;0.40;;;;;;;;;;5019995;28;20180;-82
2023/05/23 02:56:08;;;;;;;0.30;0.30;;;;;;;;;;5019949;28;20263;-82
2023/05/23 02:58:35;;;;;;;0.40;0.40;;;;;;;;;;5019862;28;20230;-81
2023/05/23 03:01:02;;;;;;;0.40;0.40;;;;;;;;;;5019696;28;20210;-82
2023/05/23 03:03:30;;;;;;;0.37;0.37;;;;;;;;;;5019597;28;20240;-82
2023/05/23 03:05:56;;;;;;;0.30;0.30;;;;;;;;;;5018601;28;20183;-82
2023/05/23 03:08:22;;;;;;;0.40;0.40;;;;;;;;;;5018633;28;20719;-81
2023/05/23 03:10:48;;;;;;;0.40;0.40;;;;;;;;;;5017287;28;20291;-82
2023/05/23 03:13:14;;;;;;;0.30;0.30;;;;;;;;;;5018082;28;20183;-82
2023/05/23 03:15:40;;;;;;;0.30;0.30;;;;;;;;;;5025329;28;20264;-80
2023/05/23 03:18:06;;;;;;;0.40;0.40;;;;;;;;;;5024811;28;20244;-81
2023/05/23 03:20:33;;;;;;;0.47;0.47;;;;;;;;;;5018946;28;20203;-81
2023/05/23 03:22:59;;;;;;;0.30;0.30;;;;;;;;;;5019572;28;20223;-82
2023/05/23 03:25:25;;;;;;;0.30;0.30;;;;;;;;;;5019508;28;20196;-81
2023/05/23 03:27:51;;;;;;;0.50;0.50;;;;;;;;;;5019547;28;20181;-80
2023/05/23 03:30:17;;;;;;;0.37;0.37;;;;;;;;;;5018469;28;20196;-82
2023/05/23 03:32:43;;;;;;;0.43;0.43;;;;;;;;;;5019919;28;20457;-83
2023/05/23 03:35:09;;;;;;;0.50;0.50;;;;;;;;;;5019730;28;20191;-82
2023/05/23 03:37:35;;;;;;;0.40;0.40;;;;;;;;;;5019427;28;20543;-81
2023/05/23 03:40:02;;;;;;;0.40;0.40;;;;;;;;;;5018344;28;20216;-83
2023/05/23 03:42:28;;;;;;;0.40;0.40;;;;;;;;;;5018461;28;20208;-81
2023/05/23 03:44:54;;;;;;;0.40;0.40;;;;;;;;;;5019286;28;20204;-82
2023/05/23 03:47:20;;;;;;;0.50;0.50;;;;;;;;;;5018319;28;20187;-82
2023/05/23 03:49:46;;;;;;;0.40;0.40;;;;;;;;;;5017938;28;20422;-82
2023/05/23 03:52:12;;;;;;;0.40;0.40;;;;;;;;;;5019876;28;20185;-82
2023/05/23 03:54:38;;;;;;;0.40;0.40;;;;;;;;;;5033905;28;20172;-80
2023/05/23 03:57:04;;;;;;;0.40;0.40;;;;;;;;;;5034663;28;20168;-80
2023/05/23 03:59:30;;;;;;;0.50;0.50;;;;;;;;;;5034377;28;20182;-81
2023/05/23 04:01:57;;;;;;;0.50;0.50;;;;;;;;;;5034204;28;20292;-80
2023/05/23 04:04:24;;;;;;;0.40;0.40;;;;;;;;;;5034001;28;20180;-80
2023/05/23 04:06:51;;;;;;;0.50;0.50;;;;;;;;;;5034665;28;20188;-79
2023/05/23 04:09:17;;;;;;;0.50;0.50;;;;;;;;;;5028953;28;20195;-80
2023/05/23 04:11:43;;;;;;;0.40;0.40;;;;;;;;;;5017516;28;20177;-82
2023/05/23 04:14:09;;;;;;;0.50;0.50;;;;;;;;;;5016726;28;20198;-81
2023/05/23 04:16:36;;;;;;;0.30;0.30;;;;;;;;;;5016568;28;20267;-82
2023/05/23 04:19:03;;;;;;;0.37;0.37;;;;;;;;;;5016147;28;20240;-82
2023/05/23 04:21:29;;;;;;;0.40;0.40;;;;;;;;;;5015869;28;20259;-80
2023/05/23 04:23:55;;;;;;;0.30;0.30;;;;;;;;;;5016780;28;20180;-82
2023/05/23 04:26:22;;;;;;;0.30;0.30;;;;;;;;;;5017443;28;20176;-81
2023/05/23 04:28:48;;;;;;;0.40;0.40;;;;;;;;;;5017987;28;20184;-81
2023/05/23 04:31:15;;;;;;;0.40;0.40;;;;;;;;;;5016814;28;20200;-82
2023/05/23 04:33:41;;;;;;;0.40;0.40;;;;;;;;;;5017258;28;20187;-82
2023/05/23 04:36:08;;;;;;;0.43;0.43;;;;;;;;;;5019454;28;20581;-85
2023/05/23 04:38:34;;;;;;;0.40;0.40;;;;;;;;;;5021237;28;20259;-83
2023/05/23 04:41:00;;;;;;;0.40;0.40;;;;;;;;;;5020467;28;20617;-82
2023/05/23 04:43:28;;;;;;;0.30;0.30;;;;;;;;;;5021512;28;20185;-83
2023/05/23 04:45:54;;;;;;;0.40;0.40;;;;;;;;;;5021793;28;20189;-84
2023/05/23 04:48:20;;;;;;;0.30;0.30;;;;;;;;;;5020891;28;20570;-82
2023/05/23 04:50:47;;;;;;;0.30;0.30;;;;;;;;;;5021331;28;20220;-81
2023/05/23 04:53:13;;;;;;;0.50;0.50;;;;;;;;;;5017720;28;20289;-82
2023/05/23 04:55:39;;;;;;;0.30;0.30;;;;;;;;;;5017276;28;20250;-82
2023/05/23 04:58:06;;;;;;;0.30;0.30;;;;;;;;;;5022413;28;20600;-80
2023/05/23 05:00:33;;;;;;;0.40;0.40;;;;;;;;;;5021735;28;20264;-81
2023/05/23 05:02:59;;;;;;;0.37;0.37;;;;;;;;;;5032954;28;20216;-80
2023/05/23 05:05:25;;;;;;;0.30;0.30;;;;;;;;;;5046242;28;20180;-82
2023/05/23 05:07:51;;;;;;;0.30;0.30;;;;;;;;;;5014129;28;20662;-83
2023/05/23 05:10:17;;;;;;;0.33;0.33;;;;;;;;;;5025279;28;20203;-81
2023/05/23 05:12:48;;;;;;;0.40;0.40;;;;;;;;;;5052324;28;20176;-80
2023/05/23 05:15:14;;;;;;;0.30;0.30;;;;;;;;;;5049559;28;20202;-80
2023/05/23 05:17:40;;;;;;;0.37;0.37;;;;;;;;;;5058594;28;20175;-79
2023/05/23 05:20:07;;;;;;;0.30;0.30;;;;;;;;;;5056215;28;20199;-80
2023/05/23 05:22:34;;;;;;;0.40;0.40;;;;;;;;;;5037853;28;20208;-80
2023/05/23 05:25:01;;;;;;;0.40;0.40;;;;;;;;;;5038585;28;20232;-80
2023/05/23 05:27:27;;;;;;;0.33;0.33;;;;;;;;;;5026488;28;20202;-82
2023/05/23 05:29:56;;;;;;;0.30;0.30;;;;;;;;;;5023068;28;20224;-82
2023/05/23 05:32:22;;;;;;;0.40;0.40;;;;;;;;;;5023513;28;20180;-81
2023/05/23 05:34:48;;;;;;;0.37;0.37;;;;;;;;;;5022009;28;20180;-82
2023/05/23 05:37:14;;;;;;;0.30;0.30;;;;;;;;;;5021105;28;20184;-82
2023/05/23 05:39:40;;;;;;;0.40;0.40;;;;;;;;;;5032611;28;20211;-82
2023/05/23 05:42:06;;;;;;;0.40;0.40;;;;;;;;;;5040501;28;20242;-81
2023/05/23 05:44:32;;;;;;;0.30;0.30;;;;;;;;;;5040848;28;20183;-81
2023/05/23 05:46:58;;;;;;;0.30;0.30;;;;;;;;;;5022946;28;20285;-81
2023/05/23 05:49:24;;;;;;;0.40;0.40;;;;;;;;;;5042935;28;20286;-82
2023/05/23 05:51:50;;;;;;;0.37;0.37;;;;;;;;;;5043982;28;20627;-82
2023/05/23 05:54:16;;;;;;;0.40;0.40;;;;;;;;;;5043213;28;20183;-81
2023/05/23 05:56:42;;;;;;;0.50;0.50;;;;;;;;;;5027838;28;20523;-82
2023/05/23 05:59:08;;;;;;;0.40;0.40;;;;;;;;;;5010922;28;20177;-81
2023/05/23 06:01:34;;;;;;;0.40;0.40;;;;;;;;;;5001071;28;20300;-82
2023/05/23 06:04:00;;;;;;;0.40;0.40;;;;;;;;;;5001158;28;20656;-82
2023/05/23 06:06:26;;;;;;;0.30;0.30;;;;;;;;;;5001682;28;20177;-81
2023/05/23 06:08:52;;;;;;;0.40;0.40;;;;;;;;;;5001233;28;20177;-81
2023/05/23 06:11:18;;;;;;;0.30;0.30;;;;;;;;;;5001024;28;20211;-81
2023/05/23 06:13:44;;;;;;;0.40;0.40;;;;;;;;;;5002764;28;20184;-83
2023/05/23 06:16:10;;;;;;;0.40;0.40;;;;;;;;;;5002989;28;20240;-84
2023/05/23 06:18:36;;;;;;;0.37;0.37;;;;;;;;;;5001359;28;20267;-84
2023/05/23 06:21:02;;;;;;;0.40;0.40;;;;;;;;;;5001603;28;20213;-85
2023/05/23 06:23:28;;;;;;;0.47;0.47;;;;;;;;;;5002639;28;20209;-84
2023/05/23 06:25:54;;;;;;;0.30;0.30;;;;;;;;;;5002617;28;20184;-83
2023/05/23 06:28:20;;;;;;;0.30;0.30;;;;;;;;;;5026967;28;20210;-84
2023/05/23 06:30:46;;;;;;;0.30;0.30;;;;;;;;;;5042113;28;20583;-84
2023/05/23 06:33:12;;;;;;;0.30;0.30;;;;;;;;;;5044038;28;20199;-84
2023/05/23 06:35:38;;;;;;;0.30;0.30;;;;;;;;;;5024165;28;20173;-85
2023/05/23 06:38:04;;;;;;;0.37;0.37;;;;;;;;;;5018730;28;20228;-84
2023/05/23 06:40:30;;;;;;;0.30;0.30;;;;;;;;;;5024096;28;20279;-84
2023/05/23 06:42:56;;;;;;;0.30;0.30;;;;;;;;;;5025095;28;20585;-81
2023/05/23 06:45:22;;;;;;;0.30;0.30;;;;;;;;;;5024123;28;20179;-84
2023/05/23 06:47:48;;;;;;;0.40;0.40;;;;;;;;;;5022810;28;20176;-86
2023/05/23 06:50:14;;;;;;;0.40;0.40;;;;;;;;;;5007180;28;20280;-85
2023/05/23 06:52:41;;;;;;;0.30;0.30;;;;;;;;;;5022437;28;20188;-84
2023/05/23 06:55:07;;;;;;;0.33;0.33;;;;;;;;;;5024521;28;20185;-83
2023/05/23 06:57:33;;;;;;;0.40;0.40;;;;;;;;;;5030748;28;20172;-83
2023/05/23 06:59:59;;;;;;;0.30;0.30;;;;;;;;;;5053459;28;20206;-84
2023/05/23 07:02:25;;;;;;;0.40;0.40;;;;;;;;;;5039047;28;20216;-83
2023/05/23 07:04:51;;;;;;;0.30;0.30;;;;;;;;;;5026637;28;20176;-83
2023/05/23 07:07:17;;;;;;;0.30;0.30;;;;;;;;;;5027917;28;20203;-82
2023/05/23 07:09:43;;;;;;;0.30;0.30;;;;;;;;;;5037412;28;20188;-82
2023/05/23 07:12:09;;;;;;;0.30;0.30;;;;;;;;;;5018063;28;20241;-82
2023/05/23 07:14:37;;;;;;;0.30;0.30;;;;;;;;;;5035129;28;20199;-83
2023/05/23 07:17:03;;;;;;;0.30;0.30;;;;;;;;;;5035090;28;20195;-83
2023/05/23 07:19:28;;;;;;;0.40;0.40;;;;;;;;;;5034594;28;20203;-83
2023/05/23 07:21:54;;;;;;;0.30;0.30;;;;;;;;;;5034501;28;20204;-83
2023/05/23 07:24:20;;;;;;;0.30;0.30;;;;;;;;;;5034391;28;20270;-83
2023/05/23 07:26:46;;;;;;;0.30;0.30;;;;;;;;;;5023717;28;20624;-83
2023/05/23 07:29:12;;;;;;;0.37;0.37;;;;;;;;;;5031401;28;20179;-83
2023/05/23 07:31:38;;;;;;;0.30;0.30;;;;;;;;;;5033683;28;20233;-83
2023/05/23 07:34:04;;;;;;;0.30;0.30;;;;;;;;;;5034588;28;20176;-83
2023/05/23 07:36:32;;;;;;;0.37;0.37;;;;;;;;;;5033963;28;20214;-83
2023/05/23 07:41:28;;;;;;;0.30;0.30;;;;;;;;;;5007081;28;20216;-89
2023/05/23 07:43:54;;;;;;;0.50;0.50;;;;;;;;;;5013755;28;20169;-89
2023/05/23 07:46:21;;;;;;;0.40;0.40;;;;;;;;;;5010797;28;20176;-88
2023/05/23 07:48:47;;;;;;;0.40;0.40;;;;;;;;;;5012235;28;20519;-87
2023/05/23 07:51:13;;;;;;;0.30;0.30;;;;;;;;;;5005713;28;20223;-86
2023/05/23 07:53:39;;;;;;;0.40;0.40;;;;;;;;;;5012849;28;20202;-88
2023/05/23 07:56:06;;;;;;;0.30;0.30;;;;;;;;;;5014682;28;20172;-86
2023/05/23 07:58:32;;;;;;;0.40;0.40;;;;;;;;;;5013735;28;20176;-88
2023/05/23 08:00:58;;;;;;;0.50;0.50;;;;;;;;;;5015246;28;20197;-85
2023/05/23 08:03:24;;;;;;;0.30;0.30;;;;;;;;;;5017249;28;20184;-87
2023/05/23 08:05:50;;;;;;;0.30;0.30;;;;;;;;;;5025728;28;20569;-84
2023/05/23 08:08:16;;;;;;;0.40;0.40;;;;;;;;;;5019562;28;20711;-85
2023/05/23 08:10:44;;;;;;;0.40;0.40;;;;;;;;;;5015765;28;20220;-85
2023/05/23 08:13:10;;;;;;;0.40;0.40;;;;;;;;;;5029613;28;20968;-84
2023/05/23 08:15:36;;;;;;;0.47;0.47;;;;;;;;;;5029246;28;20266;-85
2023/05/23 08:18:03;;;;;;;0.43;0.43;;;;;;;;;;5020359;28;20180;-85
2023/05/23 08:20:30;;;;;;;0.40;0.40;;;;;;;;;;5020986;28;20205;-84
2023/05/23 08:22:57;;;;;;;0.30;0.30;;;;;;;;;;5013148;28;20220;-85
2023/05/23 08:25:23;;;;;;;0.40;0.40;;;;;;;;;;5030574;28;20177;-85
2023/05/23 08:27:50;;;;;;;0.30;0.30;;;;;;;;;;5020639;28;20180;-84
2023/05/23 08:30:16;;;;;;;0.30;0.30;;;;;;;;;;5003754;28;20232;-86
2023/05/23 08:32:42;;;;;;;0.40;0.40;;;;;;;;;;5027111;28;20180;-85
2023/05/23 08:35:08;;;;;;;0.30;0.30;;;;;;;;;;5032845;28;20207;-84
2023/05/23 08:37:34;;;;;;;0.40;0.40;;;;;;;;;;5027449;28;20234;-85
2023/05/23 08:40:00;;;;;;;0.30;0.30;;;;;;;;;;5020944;28;20215;-87
2023/05/23 08:42:26;;;;;;;0.40;0.40;;;;;;;;;;5019747;28;20204;-87
2023/05/23 08:44:53;;;;;;;0.40;0.40;;;;;;;;;;5013774;28;20204;-83
2023/05/23 08:47:20;;;;;;;0.40;0.40;;;;;;;;;;5016024;28;20287;-83
2023/05/23 08:49:46;;;;;;;0.30;0.30;;;;;;;;;;5016722;28;20216;-82
2023/05/23 08:52:13;;;;;;;0.30;0.30;;;;;;;;;;5021961;28;20182;-84
2023/05/23 08:54:40;;;;;;;0.40;0.40;;;;;;;;;;5018934;28;20185;-86
2023/05/23 08:57:06;;;;;;;0.40;0.40;;;;;;;;;;5013977;28;20271;-85
2023/05/23 08:59:33;;;;;;;0.40;0.40;;;;;;;;;;5015486;28;20677;-85
2023/05/23 09:01:59;;;;;;;0.40;0.40;;;;;;;;;;5013320;28;20220;-85
2023/05/23 09:04:25;;;;;;;0.40;0.40;;;;;;;;;;5024642;28;20184;-85
2023/05/23 09:06:51;;;;;;;0.33;0.33;;;;;;;;;;5015616;28;20250;-86
2023/05/23 09:09:18;;;;;;;0.40;0.40;;;;;;;;;;5017258;28;20177;-83
2023/05/23 09:11:45;;;;;;;0.40;0.40;;;;;;;;;;5001728;28;20213;-87
2023/05/23 09:14:13;;;;;;;0.40;0.40;;;;;;;;;;5015774;28;20545;-84
2023/05/23 09:16:39;;;;;;;0.30;0.30;;;;;;;;;;5027324;28;20238;-84
2023/05/23 09:19:12;;;;;;;0.37;0.37;;;;;;;;;;5016523;28;20187;-84
2023/05/23 09:21:42;;;;;;;0.40;0.40;;;;;;;;;;5003459;28;20291;-84
2023/05/23 09:24:08;;;;;;;0.40;0.40;;;;;;;;;;5016386;28;20658;-86
2023/05/23 09:26:34;;;;;;;0.40;0.40;;;;;;;;;;5018342;28;20180;-84
2023/05/23 09:29:00;;;;;;;0.50;0.50;;;;;;;;;;5021979;28;20181;-84
2023/05/23 09:31:27;;;;;;;0.60;0.60;;;;;;;;;;5006238;28;20204;-85
2023/05/23 09:33:53;;;;;;;0.30;0.30;;;;;;;;;;5044861;28;20180;-83
2023/05/23 09:36:19;;;;;;;0.40;0.40;;;;;;;;;;5044923;28;20195;-85
2023/05/23 09:38:47;;;;;;;0.33;0.33;;;;;;;;;;5026382;28;20180;-85
2023/05/23 09:41:13;;;;;;;0.40;0.40;;;;;;;;;;5036949;28;20235;-85
2023/05/23 09:43:41;;;;;;;0.30;0.30;;;;;;;;;;5005585;28;20175;-85
2023/05/23 09:46:10;;;;;;;0.30;0.30;;;;;;;;;;5029962;28;20184;-85
2023/05/23 09:48:37;;;;;;;0.30;0.30;;;;;;;;;;5038107;28;20654;-85
2023/05/23 09:51:07;;;;;;;0.30;0.30;;;;;;;;;;5020486;28;20710;-86
2023/05/23 09:53:33;;;;;;;0.30;0.30;;;;;;;;;;5032217;28;20176;-87
2023/05/23 09:55:59;;;;;;;0.40;0.40;;;;;;;;;;4997580;28;20295;-85
2023/05/23 09:58:27;;;;;;;0.40;0.40;;;;;;;;;;5029281;28;20179;-84
2023/05/23 10:00:55;;;;;;;0.40;0.40;;;;;;;;;;5036582;28;20204;-85
2023/05/23 10:03:26;;;;;;;0.40;0.40;;;;;;;;;;5033922;28;20628;-84
2023/05/23 10:05:57;;;;;;;0.40;0.40;;;;;;;;;;5024552;28;20171;-84
2023/05/23 10:08:30;;;;;;;0.30;0.30;;;;;;;;;;5036141;28;20172;-84
2023/05/23 10:10:56;;;;;;;0.40;0.40;;;;;;;;;;5022857;28;20264;-85
2023/05/23 10:13:25;;;;;;;0.40;0.40;;;;;;;;;;5032988;28;20207;-85
2023/05/23 10:15:53;;;;;;;0.30;0.30;;;;;;;;;;5023325;28;20511;-85
2023/05/23 10:18:23;;;;;;;0.40;0.40;;;;;;;;;;5027144;28;20180;-84
2023/05/23 10:20:49;;;;;;;0.40;0.40;;;;;;;;;;5033325;28;20607;-85
2023/05/23 10:23:16;;;;;;;0.40;0.40;;;;;;;;;;5023161;28;20750;-84
2023/05/23 10:25:43;;;;;;;0.30;0.30;;;;;;;;;;5039635;28;20153;-84
2023/05/23 10:28:09;;;;;;;0.40;0.40;;;;;;;;;;5026673;28;20176;-84
2023/05/23 10:30:57;;;;;;;0.30;0.30;;;;;;;;;;5154198;27;20563;-85
2023/05/23 10:33:23;;;;;;;0.30;0.30;;;;;;;;;;5132822;28;20906;-84
2023/05/23 10:36:08;;;;;;;0.30;0.30;;;;;;;;;;5134205;28;20259;-86
2023/05/23 10:38:40;;;;;;;0.30;0.30;;;;;;;;;;5134493;28;20165;-83
2023/05/23 10:41:12;;;;;;;0.30;0.30;;;;;;;;;;5133990;28;20242;-86
2023/05/23 10:43:47;;;;;;;0.30;0.30;;;;;;;;;;5134731;28;20185;-84
2023/05/23 10:46:13;;;;;;;0.30;0.30;;;;;;;;;;5134541;28;20167;-84
2023/05/23 10:48:43;;;;;;;0.30;0.30;;;;;;;;;;5134257;28;20189;-83
2023/05/23 10:51:16;;;;;;;0.37;0.37;;;;;;;;;;5131408;28;20251;-85
2023/05/23 10:53:45;;;;;;;0.37;0.37;;;;;;;;;;5133283;28;20204;-82
2023/05/23 10:56:21;;;;;;;0.40;0.40;;;;;;;;;;5129839;28;20193;-84
2023/05/23 10:58:51;;;;;;;0.30;0.30;;;;;;;;;;5127883;28;20260;-83
2023/05/23 11:01:18;;;;;;;0.40;0.40;;;;;;;;;;5114420;28;20200;-83
2023/05/23 11:03:47;;;;;;;0.40;0.40;;;;;;;;;;5114919;28;20182;-82
2023/05/23 11:06:32;;;;;;;0.30;0.30;;;;;;;;;;5114038;28;20170;-84
2023/05/23 11:09:04;;;;;;;0.37;0.37;;;;;;;;;;5113269;28;20686;-85
2023/05/23 11:11:52;;;;;;;0.30;0.30;;;;;;;;;;5112980;28;20472;-84
2023/05/23 11:14:36;;;;;;;0.30;0.30;;;;;;;;;;5114544;28;20190;-83
2023/05/23 11:17:11;;;;;;;0.30;0.30;;;;;;;;;;5114563;28;20196;-86
2023/05/23 11:19:38;;;;;;;0.37;0.37;;;;;;;;;;5107691;28;20225;-85
2023/05/23 11:22:06;;;;;;;0.30;0.30;;;;;;;;;;5103737;28;20198;-83
2023/05/23 11:24:52;;;;;;;0.33;0.33;;;;;;;;;;5114037;28;20154;-81
2023/05/23 11:27:25;;;;;;;0.30;0.30;;;;;;;;;;5130911;28;20181;-83
2023/05/23 11:30:07;;;;;;;0.40;0.40;;;;;;;;;;5113210;28;20227;-84
2023/05/23 11:32:34;;;;;;;0.40;0.40;;;;;;;;;;5115728;28;20775;-86
2023/05/23 11:35:00;;;;;;;0.30;0.30;;;;;;;;;;5115294;28;20173;-83
2023/05/23 11:37:27;;;;;;;0.30;0.30;;;;;;;;;;5114412;28;20185;-84
2023/05/23 11:39:53;;;;;;;0.30;0.30;;;;;;;;;;5113170;28;20340;-86
2023/05/23 11:42:18;;;;;;;0.30;0.30;;;;;;;;;;5111154;28;20209;-87
2023/05/23 11:44:48;;;;;;;0.33;0.33;;;;;;;;;;5114669;28;20185;-88
2023/05/23 11:47:14;;;;;;;0.30;0.30;;;;;;;;;;5108576;28;20543;-85
2023/05/23 11:49:40;;;;;;;0.30;0.30;;;;;;;;;;5095912;28;20241;-85
2023/05/23 11:52:06;;;;;;;0.30;0.30;;;;;;;;;;5108926;28;20170;-83
2023/05/23 11:54:32;;;;;;;0.30;0.30;;;;;;;;;;5100513;28;20208;-85
2023/05/23 11:56:59;;;;;;;0.40;0.40;;;;;;;;;;5099308;28;20198;-85
2023/05/23 11:59:27;;;;;;;0.40;0.40;;;;;;;;;;5098068;28;20201;-86
2023/05/23 12:01:53;;;;;;;0.30;0.30;;;;;;;;;;5097448;28;20883;-86
2023/05/23 12:04:19;;;;;;;0.30;0.30;;;;;;;;;;5098221;28;20205;-85
2023/05/23 12:06:48;;;;;;;0.30;0.30;;;;;;;;;;5098594;28;20174;-85
2023/05/23 12:09:14;;;;;;;0.30;0.30;;;;;;;;;;5097770;28;20578;-88
2023/05/23 12:11:41;;;;;;;0.30;0.30;;;;;;;;;;5097439;28;20230;-84
2023/05/23 12:14:07;;;;;;;0.30;0.30;;;;;;;;;;5097731;28;20173;-85
2023/05/23 12:16:33;;;;;;;0.40;0.40;;;;;;;;;;5098650;28;20182;-85
2023/05/23 12:19:04;;;;;;;0.30;0.30;;;;;;;;;;5098268;28;20192;-85
2023/05/23 12:21:50;;;;;;;0.30;0.30;;;;;;;;;;5098805;28;20173;-84
2023/05/23 12:24:20;;;;;;;0.30;0.30;;;;;;;;;;5090792;28;20203;-85
2023/05/23 12:26:58;;;;;;;0.30;0.30;;;;;;;;;;5081297;28;20200;-85
2023/05/23 12:29:31;;;;;;;0.40;0.40;;;;;;;;;;5097525;28;20217;-88
2023/05/23 12:32:01;;;;;;;0.30;0.30;;;;;;;;;;5095092;28;20235;-88
2023/05/23 12:34:27;;;;;;;0.57;0.57;;;;;;;;;;5095707;28;20203;-87
2023/05/23 12:37:02;;;;;;;0.33;0.33;;;;;;;;;;5095789;28;20166;-86
2023/05/23 12:39:29;;;;;;;0.40;0.40;;;;;;;;;;5095367;28;20227;-88
2023/05/23 12:41:57;;;;;;;0.30;0.30;;;;;;;;;;5096646;28;20174;-87
2023/05/23 12:44:23;;;;;;;0.40;0.40;;;;;;;;;;5110644;28;20161;-90
2023/05/23 12:46:49;;;;;;;0.40;0.40;;;;;;;;;;5117715;28;20162;-89
2023/05/23 12:49:15;;;;;;;0.30;0.30;;;;;;;;;;5105626;28;20205;-87
2023/05/23 12:51:41;;;;;;;0.40;0.40;;;;;;;;;;5094274;28;20208;-86
2023/05/23 12:54:08;;;;;;;0.40;0.40;;;;;;;;;;5093364;28;20184;-88
2023/05/23 12:56:34;;;;;;;0.30;0.30;;;;;;;;;;5093393;28;20181;-90
2023/05/23 12:59:00;;;;;;;0.30;0.30;;;;;;;;;;5092368;28;20181;-87
2023/05/23 13:01:27;;;;;;;0.40;0.40;;;;;;;;;;5093834;28;20193;-86
2023/05/23 13:03:53;;;;;;;0.40;0.40;;;;;;;;;;5095554;28;20201;-86
2023/05/23 13:06:19;;;;;;;0.40;0.40;;;;;;;;;;5093795;28;20181;-88
2023/05/23 13:08:45;;;;;;;0.30;0.30;;;;;;;;;;5093547;28;20198;-87
2023/05/23 13:11:11;;;;;;;0.47;0.47;;;;;;;;;;5093987;28;20258;-86
2023/05/23 13:13:37;;;;;;;0.40;0.40;;;;;;;;;;5094398;28;20177;-89
2023/05/23 13:16:03;;;;;;;0.30;0.30;;;;;;;;;;5093880;28;20589;-86
2023/05/23 13:18:29;;;;;;;0.30;0.30;;;;;;;;;;5092026;28;20196;-86
2023/05/23 13:20:55;;;;;;;0.30;0.30;;;;;;;;;;5072899;28;20198;-88
2023/05/23 13:23:23;;;;;;;0.30;0.30;;;;;;;;;;5091193;28;20205;-86
2023/05/23 13:25:50;;;;;;;0.40;0.40;;;;;;;;;;5084692;28;20194;-86
2023/05/23 13:28:16;;;;;;;0.40;0.40;;;;;;;;;;5089270;28;20209;-87
2023/05/23 13:30:42;;;;;;;0.40;0.40;;;;;;;;;;5093257;28;20221;-87
2023/05/23 13:33:08;;;;;;;0.30;0.30;;;;;;;;;;5084558;28;20263;-87
2023/05/23 13:35:34;;;;;;;0.30;0.30;;;;;;;;;;5075963;28;20182;-87
2023/05/23 13:37:59;;;;;;;0.50;0.50;;;;;;;;;;5091943;28;20189;-86
2023/05/23 13:40:25;;;;;;;0.30;0.30;;;;;;;;;;5079283;28;20915;-88
2023/05/23 13:42:51;;;;;;;0.30;0.30;;;;;;;;;;5093743;28;20211;-88
2023/05/23 13:45:18;;;;;;;0.30;0.30;;;;;;;;;;5093028;28;20697;-89
2023/05/23 13:47:45;;;;;;;0.30;0.30;;;;;;;;;;5093959;28;20491;-87
2023/05/23 13:50:11;;;;;;;0.27;0.27;;;;;;;;;;5093911;28;20209;-87
2023/05/23 13:52:37;;;;;;;0.30;0.30;;;;;;;;;;5095591;28;20196;-87
2023/05/23 13:55:06;;;;;;;0.30;0.30;;;;;;;;;;5094061;28;20181;-89
2023/05/23 13:57:32;;;;;;;0.30;0.30;;;;;;;;;;5100005;28;20182;-88
2023/05/23 13:59:58;;;;;;;0.30;0.30;;;;;;;;;;5096593;28;20203;-86
2023/05/23 14:02:24;;;;;;;0.30;0.30;;;;;;;;;;5097911;22;20178;-84
2023/05/23 14:04:50;;;;;;;0.40;0.40;;;;;;;;;;5088404;28;20190;-87
2023/05/23 14:07:17;;;;;;;0.30;0.30;;;;;;;;;;5082228;28;20178;-86
2023/05/23 14:09:43;;;;;;;0.30;0.30;;;;;;;;;;5088519;28;20216;-86
2023/05/23 14:12:10;;;;;;;0.30;0.30;;;;;;;;;;5089838;28;20171;-87
2023/05/23 14:14:36;;;;;;;0.40;0.40;;;;;;;;;;5087837;28;20184;-87
2023/05/23 14:17:02;;;;;;;0.40;0.40;;;;;;;;;;5096993;28;20174;-85
2023/05/23 14:19:28;;;;;;;0.40;0.40;;;;;;;;;;5092381;28;20198;-87
2023/05/23 14:21:54;;;;;;;0.30;0.30;;;;;;;;;;5077986;28;20167;-83
2023/05/23 14:24:21;;;;;;;0.20;0.20;;;;;;;;;;5090550;28;20177;-85
2023/05/23 14:26:48;;;;;;;0.43;0.43;;;;;;;;;;5093377;28;20186;-89
2023/05/23 14:29:14;;;;;;;0.23;0.23;;;;;;;;;;5117928;28;20198;-89
2023/05/23 14:31:40;;;;;;;0.23;0.23;;;;;;;;;;5116212;28;20193;-86
2023/05/23 14:34:06;;;;;;;0.30;0.30;;;;;;;;;;5118462;28;20161;-94
2023/05/23 14:36:32;;;;;;;0.37;0.37;;;;;;;;;;5118016;28;20161;-90
2023/05/23 14:39:00;;;;;;;0.30;0.30;;;;;;;;;;5118026;28;20164;-91
2023/05/23 14:41:27;;;;;;;0.30;0.30;;;;;;;;;;5102518;28;20197;-84
2023/05/23 14:43:53;;;;;;;0.50;0.50;;;;;;;;;;5098964;28;20298;-85
2023/05/23 14:46:19;;;;;;;0.20;0.20;;;;;;;;;;5080340;28;20209;-84